Time;durP1;ratioP1;P1;durP2;ratioP2;P2;SDS_P1;SDS_P2;PMS_P1;PMS_P2;Temp;Humidity;BMP_temperature;BMP_pressure;BME280_temperature;BME280_humidity;BME280_pressure;Samples;Min_cycle;Max_cycle;Signal;HPM_P1;HPM_P2
2022/10/24 00:02:18;;;;;;;10.77;5.07;;;15.00;99.90;;;;;;4932558;29;20051;-69
2022/10/24 00:04:43;;;;;;;13.88;5.22;;;14.90;99.90;;;;;;4931842;29;20051;-69
2022/10/24 00:07:09;;;;;;;9.20;4.95;;;15.00;99.90;;;;;;4932501;29;20044;-69
2022/10/24 00:09:36;;;;;;;11.82;5.47;;;14.90;99.90;;;;;;4931129;29;20122;-69
2022/10/24 00:12:03;;;;;;;8.25;4.57;;;15.00;99.90;;;;;;4931752;29;20122;-69
2022/10/24 00:14:29;;;;;;;19.00;5.20;;;14.90;99.90;;;;;;4932016;29;20108;-69
2022/10/24 00:16:54;;;;;;;8.50;4.90;;;14.80;99.90;;;;;;4932121;29;20079;-69
2022/10/24 00:19:20;;;;;;;14.90;5.50;;;14.90;99.90;;;;;;4930124;29;20075;-69
2022/10/24 00:21:46;;;;;;;10.05;4.22;;;14.70;99.90;;;;;;4933022;29;21277;-69
2022/10/24 00:24:12;;;;;;;6.65;4.25;;;14.80;99.90;;;;;;4932506;29;20416;-69
2022/10/24 00:26:37;;;;;;;13.07;4.47;;;14.70;99.90;;;;;;4931844;29;20074;-69
2022/10/24 00:29:03;;;;;;;10.82;4.85;;;14.60;99.90;;;;;;4931637;29;20064;-69
2022/10/24 00:31:30;;;;;;;9.98;4.25;;;14.70;99.90;;;;;;4944330;29;20059;-69
2022/10/24 00:33:56;;;;;;;15.60;5.40;;;14.80;99.90;;;;;;4932706;29;20146;-69
2022/10/24 00:36:23;;;;;;;11.77;5.47;;;14.70;99.90;;;;;;4931049;29;20079;-69
2022/10/24 00:38:49;;;;;;;6.97;3.97;;;14.60;99.90;;;;;;4932256;29;20043;-69
2022/10/24 00:41:41;;;;;;;6.47;3.60;;;15.00;99.90;;;;;;4931450;29;20080;-69
2022/10/24 00:44:25;;;;;;;9.88;4.63;;;14.70;99.90;;;;;;4921430;29;20135;-69
2022/10/24 00:47:13;;;;;;;5.43;3.53;;;14.70;99.90;;;;;;4932753;29;20043;-69
2022/10/24 00:50:01;;;;;;;13.57;4.35;;;14.70;99.90;;;;;;4947064;29;20055;-69
2022/10/24 00:52:31;;;;;;;13.40;4.55;;;14.60;99.90;;;;;;4945320;29;20055;-69
2022/10/24 00:55:00;;;;;;;7.60;4.10;;;14.60;99.90;;;;;;4932465;29;20497;-69
2022/10/24 00:57:51;;;;;;;9.18;5.25;;;14.60;99.90;;;;;;4932906;29;20036;-69
2022/10/24 01:00:20;;;;;;;10.40;3.78;;;14.60;99.90;;;;;;4931214;29;20609;-69
2022/10/24 01:02:46;;;;;;;8.98;4.00;;;14.60;99.90;;;;;;4931171;29;20051;-69
2022/10/24 01:05:13;;;;;;;7.85;4.28;;;14.60;99.90;;;;;;4931259;29;20603;-69
2022/10/24 01:07:41;;;;;;;10.55;3.67;;;14.60;99.90;;;;;;4931468;29;20098;-69
2022/10/24 01:10:34;;;;;;;10.25;4.60;;;14.60;99.90;;;;;;4931396;29;20379;-69
2022/10/24 01:13:02;;;;;;;12.20;4.50;;;14.60;99.90;;;;;;4913774;29;20075;-69
2022/10/24 01:15:30;;;;;;;11.82;4.65;;;14.70;99.90;;;;;;4930904;29;20417;-69
2022/10/24 01:18:07;;;;;;;16.33;4.70;;;14.70;99.90;;;;;;4930605;29;20655;-69
2022/10/24 01:21:05;;;;;;;10.43;4.63;;;14.80;99.90;;;;;;4947432;28;20063;-69
2022/10/24 01:23:44;;;;;;;9.80;5.25;;;14.80;99.90;;;;;;4941001;29;20052;-69
2022/10/24 01:26:18;;;;;;;10.60;4.88;;;14.80;99.90;;;;;;4928458;29;20063;-69
2022/10/24 01:29:22;;;;;;;15.68;5.68;;;14.90;99.90;;;;;;4930344;29;20064;-69
2022/10/24 01:31:53;;;;;;;16.42;5.13;;;14.90;99.90;;;;;;4918611;29;20052;-69
2022/10/24 01:34:21;;;;;;;11.70;4.38;;;15.00;99.90;;;;;;4929208;28;20187;-69
2022/10/24 01:37:17;;;;;;;13.50;5.13;;;14.80;99.90;;;;;;4931030;29;20039;-69
2022/10/24 01:39:49;;;;;;;12.70;4.95;;;14.80;99.90;;;;;;4905283;29;20059;-69
2022/10/24 01:42:18;;;;;;;9.60;5.40;;;14.90;99.90;;;;;;4930443;29;20416;-69
2022/10/24 01:44:49;;;;;;;15.20;6.35;;;14.90;99.90;;;;;;4928725;29;20063;-69
2022/10/24 01:47:23;;;;;;;10.40;5.63;;;14.90;99.90;;;;;;4930200;29;20059;-69
2022/10/24 01:49:55;;;;;;;16.80;6.15;;;14.90;99.90;;;;;;4928748;29;20059;-69
2022/10/24 01:52:23;;;;;;;15.57;6.65;;;14.90;99.90;;;;;;4930357;29;20043;-69
2022/10/24 01:54:50;;;;;;;13.40;6.13;;;14.90;99.90;;;;;;4930443;29;20389;-69
2022/10/24 01:57:16;;;;;;;16.02;5.85;;;14.90;99.90;;;;;;4930910;29;20500;-69
2022/10/24 01:59:46;;;;;;;14.55;6.32;;;14.90;99.90;;;;;;4929779;29;20082;-68
2022/10/24 02:02:36;;;;;;;12.45;6.57;;;14.90;99.90;;;;;;4930125;29;20054;-69
2022/10/24 02:05:18;;;;;;;20.20;6.80;;;15.10;99.90;;;;;;4929334;29;20062;-69
2022/10/24 02:07:49;;;;;;;12.38;6.22;;;14.90;99.90;;;;;;4929316;29;20040;-69
2022/10/24 02:10:21;;;;;;;14.90;6.03;;;15.00;99.90;;;;;;4931814;29;20110;-69
2022/10/24 02:12:52;;;;;;;18.13;6.07;;;14.90;99.90;;;;;;4933898;29;20478;-69
2022/10/24 02:15:26;;;;;;;8.20;5.95;;;14.90;99.90;;;;;;4934621;29;20534;-69
2022/10/24 02:17:52;;;;;;;17.23;7.55;;;15.00;99.90;;;;;;4932857;29;20044;-69
2022/10/24 02:20:27;;;;;;;11.70;6.05;;;14.90;99.90;;;;;;4939862;28;20114;-69
2022/10/24 02:22:59;;;;;;;17.45;6.93;;;15.00;99.90;;;;;;4945623;29;20493;-69
2022/10/24 02:25:35;;;;;;;12.55;7.00;;;15.00;99.90;;;;;;4933125;29;20521;-69
2022/10/24 02:28:14;;;;;;;19.85;7.10;;;15.20;99.90;;;;;;4931736;29;20044;-69
2022/10/24 02:30:49;;;;;;;15.95;6.63;;;14.90;99.90;;;;;;4932231;29;20792;-69
2022/10/24 02:33:16;;;;;;;15.70;6.78;;;15.00;99.90;;;;;;4931506;29;20048;-69
2022/10/24 02:35:44;;;;;;;19.10;6.53;;;14.90;99.90;;;;;;4933563;29;20051;-69
2022/10/24 02:38:19;;;;;;;13.30;6.63;;;15.00;99.90;;;;;;4934199;29;20044;-69
2022/10/24 02:40:48;;;;;;;17.98;6.45;;;15.00;99.90;;;;;;4931990;29;20110;-69
2022/10/24 02:43:16;;;;;;;16.90;7.05;;;15.00;99.90;;;;;;4932177;29;20807;-69
2022/10/24 02:45:42;;;;;;;28.58;7.80;;;15.00;99.90;;;;;;4932195;29;20052;-69
2022/10/24 02:48:13;;;;;;;13.30;6.13;;;14.80;99.90;;;;;;4933672;29;20051;-69
2022/10/24 02:50:40;;;;;;;14.55;5.75;;;14.80;99.90;;;;;;4916548;29;20051;-69
2022/10/24 02:53:09;;;;;;;19.33;5.85;;;14.90;99.90;;;;;;4933155;29;20058;-69
2022/10/24 02:55:34;;;;;;;16.83;6.90;;;14.70;99.90;;;;;;4925543;29;20053;-69
2022/10/24 02:58:00;;;;;;;19.20;7.10;;;14.70;99.90;;;;;;4931613;29;20113;-68
2022/10/24 03:00:25;;;;;;;11.75;6.47;;;14.70;99.90;;;;;;4933555;29;20047;-68
2022/10/24 03:02:51;;;;;;;16.60;7.10;;;14.60;99.90;;;;;;4933105;29;20043;-68
2022/10/24 03:05:17;;;;;;;21.02;7.47;;;14.60;99.90;;;;;;4933166;29;20039;-69
2022/10/24 03:07:42;;;;;;;14.55;6.95;;;14.70;99.90;;;;;;4933937;29;20792;-69
2022/10/24 03:10:08;;;;;;;14.75;6.72;;;14.60;99.90;;;;;;4933774;29;20054;-69
2022/10/24 03:12:34;;;;;;;7.13;5.32;;;14.60;99.90;;;;;;4932741;29;20054;-69
2022/10/24 03:14:59;;;;;;;15.40;6.68;;;14.60;99.90;;;;;;4932029;29;20126;-69
2022/10/24 03:17:28;;;;;;;16.00;7.53;;;14.60;99.90;;;;;;4947605;29;20222;-69
2022/10/24 03:19:54;;;;;;;40.35;9.05;;;14.60;99.90;;;;;;4941608;29;20138;-68
2022/10/24 03:22:19;;;;;;;20.42;8.40;;;14.70;99.90;;;;;;4932581;29;20058;-68
2022/10/24 03:24:45;;;;;;;15.60;7.32;;;14.70;99.90;;;;;;4932919;29;20054;-69
2022/10/24 03:27:11;;;;;;;13.60;6.45;;;14.50;99.90;;;;;;4947792;28;20056;-68
2022/10/24 03:29:36;;;;;;;22.77;6.75;;;14.50;99.90;;;;;;4939239;29;20047;-68
2022/10/24 03:32:02;;;;;;;11.75;7.18;;;14.50;99.90;;;;;;4931375;29;20047;-68
2022/10/24 03:34:28;;;;;;;17.77;7.55;;;14.50;99.90;;;;;;4932801;29;20071;-68
2022/10/24 03:36:53;;;;;;;12.90;7.93;;;14.50;99.90;;;;;;4932847;29;20123;-69
2022/10/24 03:39:19;;;;;;;20.05;7.85;;;14.50;99.90;;;;;;4932666;29;20079;-68
2022/10/24 03:41:45;;;;;;;11.80;7.38;;;14.50;99.90;;;;;;4931934;29;20046;-68
2022/10/24 03:44:10;;;;;;;22.35;7.20;;;14.50;99.90;;;;;;4932571;29;20563;-68
2022/10/24 03:46:36;;;;;;;15.50;7.28;;;14.60;99.90;;;;;;4932831;29;20035;-69
2022/10/24 03:49:01;;;;;;;19.42;7.38;;;14.60;99.90;;;;;;4931659;29;20056;-68
2022/10/24 03:51:27;;;;;;;26.15;8.98;;;14.60;99.90;;;;;;4932365;29;20135;-69
2022/10/24 03:53:55;;;;;;;18.08;8.52;;;14.70;99.90;;;;;;4932766;29;20050;-68
2022/10/24 03:56:20;;;;;;;11.40;7.18;;;14.70;99.90;;;;;;4932683;29;20055;-68
2022/10/24 03:58:46;;;;;;;18.50;8.00;;;14.80;99.90;;;;;;4932415;29;20047;-68
2022/10/24 04:01:16;;;;;;;12.77;7.07;;;14.80;99.90;;;;;;4932629;29;20404;-68
2022/10/24 04:03:45;;;;;;;14.75;7.07;;;14.80;99.90;;;;;;4931878;29;20056;-68
2022/10/24 04:06:12;;;;;;;18.98;6.78;;;14.80;99.90;;;;;;4931140;29;20390;-68
2022/10/24 04:08:38;;;;;;;21.92;7.65;;;14.70;99.90;;;;;;4931630;29;20047;-68
2022/10/24 04:11:05;;;;;;;14.23;7.60;;;14.70;99.90;;;;;;4929475;28;20055;-68
2022/10/24 04:13:31;;;;;;;15.38;6.43;;;14.80;99.90;;;;;;4927598;29;20039;-68
2022/10/24 04:16:03;;;;;;;13.40;6.80;;;14.80;99.90;;;;;;4931682;29;20058;-69
2022/10/24 04:18:29;;;;;;;14.93;6.75;;;14.80;99.90;;;;;;4935493;29;20044;-68
2022/10/24 04:20:54;;;;;;;17.95;7.20;;;14.80;99.90;;;;;;4929558;29;20091;-68
2022/10/24 04:23:20;;;;;;;17.38;6.50;;;14.80;99.90;;;;;;4931482;29;20118;-68
2022/10/24 04:25:45;;;;;;;19.23;6.63;;;14.80;99.90;;;;;;4930260;29;20473;-68
2022/10/24 04:28:11;;;;;;;16.10;5.95;;;14.70;99.90;;;;;;4935875;29;20130;-68
2022/10/24 04:30:37;;;;;;;13.60;6.57;;;14.70;99.90;;;;;;4931462;28;20094;-68
2022/10/24 04:33:02;;;;;;;13.27;6.47;;;14.60;99.90;;;;;;4929989;29;20059;-68
2022/10/24 04:35:28;;;;;;;10.98;6.65;;;14.60;99.90;;;;;;4930575;29;20063;-68
2022/10/24 04:37:54;;;;;;;18.38;7.20;;;14.60;99.90;;;;;;4931196;28;20043;-68
2022/10/24 04:40:21;;;;;;;17.38;6.90;;;14.60;99.90;;;;;;4932146;28;20154;-68
2022/10/24 04:42:46;;;;;;;12.90;6.05;;;14.60;99.90;;;;;;4929958;29;20552;-68
2022/10/24 04:45:12;;;;;;;16.95;6.07;;;14.60;99.90;;;;;;4931099;29;20047;-68
2022/10/24 04:47:37;;;;;;;14.43;6.63;;;14.60;99.90;;;;;;4931344;28;20071;-68
2022/10/24 04:50:04;;;;;;;12.63;6.18;;;14.60;99.90;;;;;;4931060;29;20043;-68
2022/10/24 04:52:29;;;;;;;17.10;6.28;;;14.60;99.90;;;;;;4929400;29;20046;-68
2022/10/24 04:54:55;;;;;;;11.23;5.93;;;14.50;99.90;;;;;;4930722;29;20052;-68
2022/10/24 04:57:21;;;;;;;12.85;6.43;;;14.50;99.90;;;;;;4931109;29;20036;-68
2022/10/24 04:59:46;;;;;;;16.17;6.97;;;14.50;99.90;;;;;;4930926;29;20150;-69
2022/10/24 05:02:12;;;;;;;16.17;6.30;;;14.50;99.90;;;;;;4930317;29;20424;-68
2022/10/24 05:04:38;;;;;;;13.68;5.75;;;14.60;99.90;;;;;;4931144;29;20044;-68
2022/10/24 05:07:03;;;;;;;12.15;5.70;;;14.50;99.90;;;;;;4931096;29;20051;-68
2022/10/24 05:09:29;;;;;;;13.68;5.82;;;14.50;99.90;;;;;;4930985;29;20420;-68
2022/10/24 05:11:55;;;;;;;11.52;5.43;;;14.50;99.90;;;;;;4929673;29;20126;-68
2022/10/24 05:14:21;;;;;;;8.93;5.15;;;14.50;99.90;;;;;;4931518;28;20083;-68
2022/10/24 05:16:48;;;;;;;16.05;5.97;;;14.50;99.90;;;;;;4932012;29;20082;-68
2022/10/24 05:19:15;;;;;;;8.27;5.03;;;14.40;99.90;;;;;;4939460;29;20036;-68
2022/10/24 05:21:41;;;;;;;12.35;5.20;;;14.40;99.90;;;;;;4932100;29;20047;-68
2022/10/24 05:24:07;;;;;;;10.43;5.35;;;14.40;99.90;;;;;;4930905;29;20488;-68
2022/10/24 05:26:32;;;;;;;17.80;6.50;;;14.40;99.90;;;;;;4931401;29;20047;-68
2022/10/24 05:28:58;;;;;;;14.05;5.40;;;14.40;99.90;;;;;;4931826;29;20063;-68
2022/10/24 05:31:24;;;;;;;9.35;4.70;;;14.50;99.90;;;;;;4931489;29;20906;-68
2022/10/24 05:33:49;;;;;;;20.58;5.47;;;14.30;99.90;;;;;;4931040;29;20068;-68
2022/10/24 05:36:15;;;;;;;9.73;4.82;;;14.30;99.90;;;;;;4929998;29;20420;-68
2022/10/24 05:38:41;;;;;;;15.48;6.13;;;14.30;99.90;;;;;;4930869;29;20047;-68
2022/10/24 05:41:06;;;;;;;15.38;5.95;;;14.30;99.90;;;;;;4930713;29;20072;-68
2022/10/24 05:43:32;;;;;;;15.38;5.95;;;14.20;99.90;;;;;;4931220;29;20065;-68
2022/10/24 05:45:58;;;;;;;19.30;5.93;;;14.20;99.90;;;;;;4929379;29;20055;-68
2022/10/24 05:48:23;;;;;;;8.60;4.90;;;14.30;99.90;;;;;;4929949;29;20051;-68
2022/10/24 05:50:49;;;;;;;11.95;5.88;;;14.20;99.90;;;;;;4930378;29;20082;-68
2022/10/24 05:53:14;;;;;;;13.23;4.68;;;14.20;99.90;;;;;;4943686;28;20047;-68
2022/10/24 05:55:40;;;;;;;16.38;5.95;;;14.10;99.90;;;;;;4930678;29;20040;-68
2022/10/24 05:58:06;;;;;;;14.68;5.13;;;14.20;99.90;;;;;;4931000;29;20066;-68
2022/10/24 06:00:33;;;;;;;20.23;5.00;;;14.10;99.90;;;;;;4930155;29;20040;-68
2022/10/24 06:02:59;;;;;;;8.88;4.60;;;14.10;99.90;;;;;;4929718;29;20453;-68
2022/10/24 06:05:25;;;;;;;13.07;4.85;;;14.10;99.90;;;;;;4930042;29;20095;-68
2022/10/24 06:07:51;;;;;;;7.75;4.82;;;14.10;99.90;;;;;;4943947;28;20047;-68
2022/10/24 06:10:17;;;;;;;13.98;4.57;;;14.10;99.90;;;;;;4927729;29;20047;-68
2022/10/24 06:12:43;;;;;;;20.10;5.53;;;14.20;99.90;;;;;;4943936;28;20117;-68
2022/10/24 06:15:11;;;;;;;5.75;5.07;;;14.20;99.90;;;;;;4930916;29;20548;-68
2022/10/24 06:17:36;;;;;;;21.10;5.70;;;14.20;99.90;;;;;;4928444;29;20075;-68
2022/10/24 06:20:03;;;;;;;9.75;4.05;;;14.20;99.90;;;;;;4929484;29;20646;-68
2022/10/24 06:22:28;;;;;;;6.28;4.00;;;14.20;99.90;;;;;;4930165;29;20087;-68
2022/10/24 06:24:55;;;;;;;15.80;4.68;;;14.30;99.90;;;;;;4930995;29;20091;-68
2022/10/24 06:27:20;;;;;;;8.88;4.55;;;14.30;99.90;;;;;;4931643;29;20047;-68
2022/10/24 06:29:46;;;;;;;8.75;4.88;;;14.30;99.90;;;;;;4930536;29;20051;-68
2022/10/24 06:32:12;;;;;;;11.40;4.35;;;14.40;99.90;;;;;;4930484;29;20130;-68
2022/10/24 06:34:37;;;;;;;10.82;5.03;;;14.40;99.90;;;;;;4930411;29;20048;-68
2022/10/24 06:37:03;;;;;;;20.05;5.35;;;14.40;99.90;;;;;;4931204;29;20165;-68
2022/10/24 06:39:29;;;;;;;10.00;5.57;;;14.40;99.90;;;;;;4931401;29;20404;-68
2022/10/24 06:41:55;;;;;;;15.57;6.13;;;14.40;99.90;;;;;;4929758;29;20059;-68
2022/10/24 06:44:21;;;;;;;8.82;4.93;;;14.40;99.90;;;;;;4930629;29;20535;-67
2022/10/24 06:46:46;;;;;;;9.65;5.07;;;14.50;99.90;;;;;;4930127;29;20119;-68
2022/10/24 06:49:12;;;;;;;18.83;4.78;;;14.40;99.90;;;;;;4929991;28;20036;-68
2022/10/24 06:51:39;;;;;;;13.95;4.68;;;14.50;99.90;;;;;;4925165;29;20418;-68
2022/10/24 06:54:04;;;;;;;11.55;4.90;;;14.50;99.90;;;;;;4929363;29;20376;-68
2022/10/24 06:56:30;;;;;;;9.73;5.80;;;14.60;99.90;;;;;;4930683;28;20111;-67
2022/10/24 06:58:56;;;;;;;19.85;6.63;;;14.60;99.90;;;;;;4930907;29;20050;-67
2022/10/24 07:01:24;;;;;;;15.27;6.90;;;14.60;99.90;;;;;;4932077;29;20048;-68
2022/10/24 07:03:56;;;;;;;9.18;4.65;;;14.70;99.90;;;;;;4932346;29;20054;-67
2022/10/24 07:06:26;;;;;;;10.70;5.00;;;14.60;99.90;;;;;;4933236;29;20107;-67
2022/10/24 07:08:55;;;;;;;14.20;5.07;;;14.60;99.90;;;;;;4932305;29;20497;-68
2022/10/24 07:11:21;;;;;;;12.80;4.82;;;14.60;99.90;;;;;;4931968;29;20720;-68
2022/10/24 07:13:47;;;;;;;11.45;5.05;;;14.60;99.90;;;;;;4931012;29;20054;-68
2022/10/24 07:16:13;;;;;;;7.32;4.65;;;14.70;99.90;;;;;;4930497;29;20453;-68
2022/10/24 07:18:39;;;;;;;8.65;4.57;;;14.80;99.90;;;;;;4933108;29;20051;-68
2022/10/24 07:21:09;;;;;;;9.95;4.68;;;14.80;99.90;;;;;;4932397;29;20046;-68
2022/10/24 07:23:35;;;;;;;8.48;3.83;;;14.70;99.90;;;;;;4931935;29;20047;-68
2022/10/24 07:26:02;;;;;;;9.60;4.65;;;14.80;99.90;;;;;;4946932;29;20039;-68
2022/10/24 07:28:28;;;;;;;12.05;4.35;;;14.90;99.90;;;;;;4930953;29;20130;-68
2022/10/24 07:30:54;;;;;;;12.18;6.65;;;14.80;99.90;;;;;;4932421;29;20087;-71
2022/10/24 07:33:19;;;;;;;18.70;5.95;;;14.90;99.90;;;;;;4931195;29;20404;-71
2022/10/24 07:35:45;;;;;;;7.30;4.20;;;15.00;99.90;;;;;;4932826;29;20055;-71
2022/10/24 07:38:11;;;;;;;8.98;4.53;;;14.90;99.90;;;;;;4940763;29;20070;-71
2022/10/24 07:40:37;;;;;;;22.75;4.72;;;14.80;99.90;;;;;;4934905;29;20437;-71
2022/10/24 07:43:03;;;;;;;9.07;4.53;;;14.90;99.90;;;;;;4928483;29;20099;-71
2022/10/24 07:45:31;;;;;;;13.20;4.38;;;14.90;99.90;;;;;;4932890;29;20055;-71
2022/10/24 07:47:58;;;;;;;12.43;3.63;;;15.00;99.90;;;;;;4932128;29;20051;-71
2022/10/24 07:50:24;;;;;;;14.23;4.82;;;15.00;99.90;;;;;;4930668;29;20051;-71
2022/10/24 07:52:49;;;;;;;10.48;3.90;;;15.00;99.90;;;;;;4932897;29;20478;-71
2022/10/24 07:55:15;;;;;;;11.93;3.80;;;15.00;99.90;;;;;;4933003;29;20036;-71
2022/10/24 07:57:41;;;;;;;18.13;5.70;;;15.00;99.90;;;;;;4949024;28;20047;-71
2022/10/24 08:00:07;;;;;;;15.48;4.10;;;15.00;99.90;;;;;;4926633;29;20048;-71
2022/10/24 08:02:32;;;;;;;14.25;4.97;;;15.10;99.90;;;;;;4929461;29;20048;-71
2022/10/24 08:04:58;;;;;;;12.82;3.78;;;15.00;99.90;;;;;;4946011;29;20507;-71
2022/10/24 08:07:24;;;;;;;13.52;4.72;;;15.10;99.90;;;;;;4929688;29;20043;-70
2022/10/24 08:09:50;;;;;;;9.27;4.22;;;15.10;99.90;;;;;;4930281;29;20047;-71
2022/10/24 08:12:17;;;;;;;13.30;4.22;;;15.10;99.90;;;;;;4947423;29;20563;-71
2022/10/24 08:14:43;;;;;;;13.35;4.35;;;15.10;99.90;;;;;;4932069;29;20043;-71
2022/10/24 08:17:09;;;;;;;10.15;4.00;;;15.20;99.90;;;;;;4932216;29;20063;-71
2022/10/24 08:19:35;;;;;;;13.70;4.82;;;15.30;99.90;;;;;;4932044;29;20044;-71
2022/10/24 08:22:02;;;;;;;12.05;3.65;;;15.20;99.90;;;;;;4928410;29;20051;-71
2022/10/24 08:24:29;;;;;;;18.90;5.03;;;15.40;99.90;;;;;;4945713;29;20048;-71
2022/10/24 08:26:57;;;;;;;13.55;4.15;;;15.20;99.90;;;;;;4930317;29;20051;-71
2022/10/24 08:29:24;;;;;;;12.07;4.47;;;15.50;99.90;;;;;;4928111;29;20524;-71
2022/10/24 08:31:54;;;;;;;9.95;4.32;;;15.40;99.90;;;;;;4930518;29;20062;-71
2022/10/24 08:34:22;;;;;;;13.23;4.07;;;15.40;99.90;;;;;;4936372;29;20077;-71
2022/10/24 08:36:48;;;;;;;12.27;3.78;;;15.60;99.90;;;;;;4931655;28;20063;-71
2022/10/24 08:39:14;;;;;;;24.95;5.10;;;15.50;99.90;;;;;;4930168;29;20058;-71
2022/10/24 08:41:54;;;;;;;14.05;3.95;;;15.50;99.90;;;;;;4931260;29;20102;-71
2022/10/24 08:44:30;;;;;;;7.03;3.08;;;15.70;99.90;;;;;;4930194;29;20047;-71
2022/10/24 08:47:20;;;;;;;11.60;3.78;;;15.80;99.90;;;;;;4928980;29;20083;-71
2022/10/24 08:50:15;;;;;;;16.35;3.90;;;15.80;99.90;;;;;;4929900;29;20047;-71
2022/10/24 08:52:54;;;;;;;15.68;4.18;;;15.80;99.90;;;;;;4937075;28;20064;-72
2022/10/24 08:55:53;;;;;;;14.07;4.03;;;15.90;99.90;;;;;;4944081;28;20055;-72
2022/10/24 08:58:36;;;;;;;18.50;3.88;;;16.00;99.90;;;;;;4927340;29;20523;-73
2022/10/24 09:01:07;;;;;;;9.68;3.65;;;16.10;99.90;;;;;;4928967;29;20055;-72
2022/10/24 09:03:46;;;;;;;13.80;3.80;;;16.20;99.90;;;;;;4945019;28;20051;-74
2022/10/24 09:06:17;;;;;;;6.70;3.55;;;16.30;99.90;;;;;;4930309;29;20056;-68
2022/10/24 09:08:48;;;;;;;14.38;4.28;;;16.40;99.90;;;;;;4929550;29;20040;-69
2022/10/24 09:11:25;;;;;;;14.10;4.40;;;16.40;99.90;;;;;;4931178;29;20052;-68
2022/10/24 09:13:51;;;;;;;11.45;4.03;;;16.40;99.90;;;;;;4921354;29;20043;-68
2022/10/24 09:16:22;;;;;;;10.55;3.33;;;16.40;99.90;;;;;;4930784;29;20039;-68
2022/10/24 09:18:52;;;;;;;11.05;3.25;;;16.40;99.90;;;;;;4920194;29;20055;-68
2022/10/24 09:21:19;;;;;;;10.57;3.17;;;16.50;99.90;;;;;;4932049;29;20473;-69
2022/10/24 09:23:44;;;;;;;20.23;4.00;;;16.60;99.90;;;;;;4943669;29;20047;-69
2022/10/24 09:26:23;;;;;;;11.05;3.92;;;16.50;99.90;;;;;;4931088;29;20046;-69
2022/10/24 09:28:48;;;;;;;12.65;3.83;;;16.50;99.90;;;;;;4931539;29;20048;-68
2022/10/24 09:31:17;;;;;;;21.17;4.15;;;16.50;99.90;;;;;;4931543;29;20535;-69
2022/10/24 09:33:45;;;;;;;14.88;3.17;;;16.50;99.90;;;;;;4930474;29;20048;-69
2022/10/24 09:36:13;;;;;;;19.25;4.10;;;16.50;99.90;;;;;;4935162;29;20044;-69
2022/10/24 09:38:40;;;;;;;17.00;4.85;;;16.50;99.90;;;;;;4929949;29;20051;-70
2022/10/24 09:41:21;;;;;;;20.52;4.75;;;16.50;99.90;;;;;;4945257;28;20265;-69
2022/10/24 09:43:53;;;;;;;6.85;3.42;;;16.60;99.90;;;;;;4918098;29;20063;-70
2022/10/24 09:46:28;;;;;;;12.48;3.95;;;16.50;99.90;;;;;;4931185;29;20052;-70
2022/10/24 09:49:07;;;;;;;17.92;5.90;;;16.50;99.90;;;;;;4930621;29;20488;-70
2022/10/24 09:51:40;;;;;;;10.02;3.97;;;16.50;99.90;;;;;;4930460;29;20048;-69
2022/10/24 09:54:18;;;;;;;24.20;4.95;;;16.40;99.90;;;;;;4928857;29;20122;-69
2022/10/24 09:56:57;;;;;;;11.07;4.40;;;16.60;99.90;;;;;;4927317;29;20055;-70
2022/10/24 09:59:43;;;;;;;13.98;4.03;;;16.60;99.90;;;;;;4929394;29;20071;-70
2022/10/24 10:02:23;;;;;;;13.68;5.18;;;16.50;99.90;;;;;;4930614;29;20552;-70
2022/10/24 10:05:16;;;;;;;18.40;4.75;;;16.50;99.90;;;;;;4929773;29;20059;-70
2022/10/24 10:07:47;;;;;;;5.75;3.05;;;16.60;99.90;;;;;;4930290;29;20044;-70
2022/10/24 10:10:34;;;;;;;15.60;3.53;;;16.70;99.90;;;;;;4928536;29;20048;-70
2022/10/24 10:13:15;;;;;;;13.75;2.97;;;16.90;99.90;;;;;;4932310;29;20408;-70
2022/10/24 10:15:49;;;;;;;13.38;3.50;;;17.10;99.90;;;;;;4928249;29;20058;-70
2022/10/24 10:18:38;;;;;;;11.18;3.58;;;17.30;99.90;;;;;;4936247;29;20583;-70
2022/10/24 10:21:09;;;;;;;10.60;3.10;;;17.40;99.90;;;;;;4924926;29;20844;-70
2022/10/24 10:23:55;;;;;;;12.50;2.92;;;17.50;99.90;;;;;;4928821;29;20137;-70
2022/10/24 10:26:41;;;;;;;8.65;3.03;;;17.30;99.90;;;;;;4932244;29;20496;-70
2022/10/24 10:29:16;;;;;;;15.10;2.95;;;17.30;99.90;;;;;;4928485;29;20068;-71
2022/10/24 10:31:45;;;;;;;9.07;3.03;;;17.10;99.90;;;;;;4930661;29;20047;-71
2022/10/24 10:34:24;;;;;;;8.75;3.40;;;17.10;99.90;;;;;;4936203;29;20527;-71
2022/10/24 10:36:57;;;;;;;11.93;3.30;;;17.10;99.90;;;;;;4932038;29;20051;-71
2022/10/24 10:39:33;;;;;;;14.32;3.28;;;17.30;99.90;;;;;;4931305;29;20064;-71
2022/10/24 10:42:11;;;;;;;8.13;2.67;;;17.40;99.90;;;;;;4929809;29;20060;-71
2022/10/24 10:45:07;;;;;;;13.30;2.78;;;17.40;99.90;;;;;;4943890;28;20059;-71
2022/10/24 10:47:54;;;;;;;4.32;2.25;;;17.50;99.90;;;;;;4926341;29;20475;-71
2022/10/24 10:50:54;;;;;;;14.38;2.60;;;17.50;99.90;;;;;;4944517;29;20130;-71
2022/10/24 10:53:42;;;;;;;11.63;2.55;;;17.60;99.90;;;;;;4948323;29;20047;-72
2022/10/24 10:56:53;;;;;;;7.90;2.92;;;17.70;99.90;;;;;;4934380;29;20079;-72
2022/10/24 10:59:38;;;;;;;5.57;2.85;;;17.80;99.90;;;;;;4887977;29;20461;-72
2022/10/24 11:02:31;;;;;;;8.40;2.92;;;18.00;99.90;;;;;;4931868;29;20047;-72
2022/10/24 11:05:18;;;;;;;10.52;4.05;;;18.10;99.90;;;;;;4942676;28;20058;-72
2022/10/24 11:08:16;;;;;;;8.52;2.92;;;18.00;99.90;;;;;;4930486;29;20080;-72
2022/10/24 11:10:49;;;;;;;10.20;3.72;;;18.00;99.90;;;;;;4925407;29;20048;-72
2022/10/24 11:13:19;;;;;;;11.27;2.75;;;18.10;99.90;;;;;;4931784;29;20059;-73
2022/10/24 11:15:50;;;;;;;7.00;2.90;;;18.00;99.90;;;;;;4930484;29;20136;-73
2022/10/24 11:18:21;;;;;;;9.98;2.92;;;17.80;99.90;;;;;;4930830;29;20055;-73
2022/10/24 11:21:01;;;;;;;10.05;3.20;;;17.80;99.90;;;;;;4947426;29;20536;-72
2022/10/24 11:23:41;;;;;;;11.25;4.25;;;17.70;99.90;;;;;;4930491;29;20059;-72
2022/10/24 11:26:14;;;;;;;10.75;3.75;;;17.60;99.90;;;;;;4946687;28;20039;-72
2022/10/24 11:29:01;;;;;;;8.90;3.65;;;17.60;99.90;;;;;;4930800;29;20082;-73
2022/10/24 11:31:38;;;;;;;14.77;3.97;;;17.50;99.90;;;;;;4931452;29;20051;-72
2022/10/24 11:34:16;;;;;;;7.65;2.17;;;17.60;99.90;;;;;;4933232;29;20453;-73
2022/10/24 11:37:03;;;;;;;6.30;2.58;;;17.50;99.90;;;;;;4951861;28;20047;-72
2022/10/24 11:39:30;;;;;;;16.63;3.53;;;17.40;99.90;;;;;;4937602;29;20579;-72
2022/10/24 11:42:05;;;;;;;8.80;2.50;;;17.40;99.90;;;;;;4931244;29;20051;-73
2022/10/24 11:44:38;;;;;;;9.25;2.75;;;17.50;99.90;;;;;;4930703;29;20055;-73
2022/10/24 11:47:17;;;;;;;5.38;3.25;;;17.60;99.90;;;;;;4918772;29;20138;-73
2022/10/24 11:49:46;;;;;;;11.45;3.45;;;17.70;99.90;;;;;;4928199;29;20130;-72
2022/10/24 11:52:22;;;;;;;19.38;4.15;;;17.70;99.90;;;;;;4918742;29;20043;-72
2022/10/24 11:55:14;;;;;;;12.95;2.92;;;17.80;99.90;;;;;;4933003;29;20071;-73
2022/10/24 11:57:44;;;;;;;10.75;2.97;;;17.80;99.90;;;;;;4919508;29;20595;-72
2022/10/24 12:00:32;;;;;;;8.20;3.13;;;17.60;99.90;;;;;;4931490;29;20127;-72
2022/10/24 12:03:19;;;;;;;8.32;2.80;;;17.60;99.90;;;;;;4931271;29;20495;-72
2022/10/24 12:05:47;;;;;;;9.80;5.97;;;17.60;99.90;;;;;;4930892;29;20048;-70
2022/10/24 12:08:57;;;;;;;32.15;4.32;;;17.70;99.90;;;;;;4931527;29;20051;-71
2022/10/24 12:11:27;;;;;;;7.57;2.95;;;17.80;99.90;;;;;;4922805;29;20509;-71
2022/10/24 12:14:27;;;;;;;11.10;4.03;;;17.80;99.90;;;;;;4930378;29;20056;-71
2022/10/24 12:17:26;;;;;;;7.28;2.97;;;17.90;99.90;;;;;;4930676;29;20040;-72
2022/10/24 12:19:52;;;;;;;8.15;3.45;;;17.90;99.90;;;;;;4937599;29;20108;-73
2022/10/24 12:22:25;;;;;;;12.48;3.15;;;17.90;99.90;;;;;;4946892;28;20506;-72
2022/10/24 12:25:31;;;;;;;15.07;3.42;;;18.00;99.90;;;;;;4929219;29;20051;-71
2022/10/24 12:28:00;;;;;;;5.63;2.38;;;17.90;99.90;;;;;;4924556;29;20059;-71
2022/10/24 12:30:29;;;;;;;9.90;3.38;;;17.90;99.90;;;;;;4928663;29;20780;-71
2022/10/24 12:32:56;;;;;;;8.15;3.10;;;17.80;99.90;;;;;;4944294;29;20159;-71
2022/10/24 12:35:29;;;;;;;7.40;2.73;;;17.80;99.90;;;;;;4930124;29;20051;-71
2022/10/24 12:37:55;;;;;;;5.38;2.63;;;17.60;99.90;;;;;;4931263;29;20131;-71
2022/10/24 12:40:50;;;;;;;14.73;3.55;;;17.60;99.90;;;;;;4930201;29;20090;-71
2022/10/24 12:43:31;;;;;;;11.73;3.13;;;17.70;99.90;;;;;;4928187;29;20059;-71
2022/10/24 12:46:00;;;;;;;4.13;2.33;;;17.70;99.90;;;;;;4930970;29;20048;-70
2022/10/24 12:48:36;;;;;;;15.20;4.22;;;17.80;99.90;;;;;;4929474;29;20102;-71
2022/10/24 12:51:22;;;;;;;10.90;3.08;;;17.90;99.90;;;;;;4928418;29;20040;-71
2022/10/24 12:54:10;;;;;;;10.07;4.68;;;17.90;99.90;;;;;;4945300;28;20047;-71
2022/10/24 12:56:59;;;;;;;14.57;4.55;;;17.90;99.90;;;;;;4927594;29;20567;-72
2022/10/24 12:59:31;;;;;;;7.53;3.55;;;18.10;99.90;;;;;;4905634;29;20062;-71
2022/10/24 13:02:12;;;;;;;18.17;5.07;;;17.80;99.90;;;;;;4930285;29;20813;-70